sensor_id;sensor_type;location;lat;lon;timestamp;P1;durP1;ratioP1;P2;durP2;ratioP2
44440;SDS011;30146;52.268;20.944;2024-01-11T00:03:01;75.40;;;27.70;;
44440;SDS011;30146;52.268;20.944;2024-01-11T00:05:32;100.70;;;35.60;;
44440;SDS011;30146;52.268;20.944;2024-01-11T00:08:05;72.90;;;25.00;;
44440;SDS011;30146;52.268;20.944;2024-01-11T00:10:36;99.90;;;37.50;;
44440;SDS011;30146;52.268;20.944;2024-01-11T00:13:07;95.60;;;34.90;;
44440;SDS011;30146;52.268;20.944;2024-01-11T00:15:38;110.30;;;42.30;;
44440;SDS011;30146;52.268;20.944;2024-01-11T00:18:09;96.20;;;41.80;;
44440;SDS011;30146;52.268;20.944;2024-01-11T00:20:40;116.00;;;43.70;;
44440;SDS011;30146;52.268;20.944;2024-01-11T00:23:13;130.30;;;45.20;;
44440;SDS011;30146;52.268;20.944;2024-01-11T00:25:44;115.60;;;43.40;;
44440;SDS011;30146;52.268;20.944;2024-01-11T00:28:15;130.10;;;50.80;;
44440;SDS011;30146;52.268;20.944;2024-01-11T00:30:46;132.00;;;51.50;;
44440;SDS011;30146;52.268;20.944;2024-01-11T00:33:17;135.40;;;49.70;;
44440;SDS011;30146;52.268;20.944;2024-01-11T00:35:49;121.70;;;48.30;;
44440;SDS011;30146;52.268;20.944;2024-01-11T00:38:20;115.60;;;42.20;;
44440;SDS011;30146;52.268;20.944;2024-01-11T00:40:52;114.50;;;40.70;;
44440;SDS011;30146;52.268;20.944;2024-01-11T00:43:29;97.20;;;39.90;;
44440;SDS011;30146;52.268;20.944;2024-01-11T00:46:02;104.30;;;41.00;;
44440;SDS011;30146;52.268;20.944;2024-01-11T00:48:37;101.20;;;39.80;;
44440;SDS011;30146;52.268;20.944;2024-01-11T00:51:09;101.00;;;38.70;;
44440;SDS011;30146;52.268;20.944;2024-01-11T00:53:40;93.20;;;35.70;;
44440;SDS011;30146;52.268;20.944;2024-01-11T00:56:18;83.40;;;33.30;;
44440;SDS011;30146;52.268;20.944;2024-01-11T00:59:05;87.20;;;32.80;;
44440;SDS011;30146;52.268;20.944;2024-01-11T01:01:37;66.60;;;28.30;;
44440;SDS011;30146;52.268;20.944;2024-01-11T01:04:08;70.00;;;26.80;;
44440;SDS011;30146;52.268;20.944;2024-01-11T01:06:40;75.50;;;30.00;;
44440;SDS011;30146;52.268;20.944;2024-01-11T01:09:12;63.90;;;24.20;;
44440;SDS011;30146;52.268;20.944;2024-01-11T01:11:43;73.70;;;27.60;;
44440;SDS011;30146;52.268;20.944;2024-01-11T01:14:14;76.50;;;29.70;;
44440;SDS011;30146;52.268;20.944;2024-01-11T01:16:46;68.70;;;28.50;;
44440;SDS011;30146;52.268;20.944;2024-01-11T01:19:17;67.70;;;29.20;;
44440;SDS011;30146;52.268;20.944;2024-01-11T01:21:49;70.60;;;30.40;;
44440;SDS011;30146;52.268;20.944;2024-01-11T01:24:20;76.90;;;29.80;;
44440;SDS011;30146;52.268;20.944;2024-01-11T01:26:52;67.30;;;28.40;;
44440;SDS011;30146;52.268;20.944;2024-01-11T01:29:23;76.00;;;29.10;;
44440;SDS011;30146;52.268;20.944;2024-01-11T01:31:55;68.20;;;27.80;;
44440;SDS011;30146;52.268;20.944;2024-01-11T01:34:27;83.50;;;28.30;;
44440;SDS011;30146;52.268;20.944;2024-01-11T01:36:58;72.20;;;29.20;;
44440;SDS011;30146;52.268;20.944;2024-01-11T01:39:29;69.50;;;30.70;;
44440;SDS011;30146;52.268;20.944;2024-01-11T01:42:00;74.30;;;30.20;;
44440;SDS011;30146;52.268;20.944;2024-01-11T01:44:31;67.00;;;29.80;;
44440;SDS011;30146;52.268;20.944;2024-01-11T01:47:03;76.90;;;31.20;;
44440;SDS011;30146;52.268;20.944;2024-01-11T01:49:35;77.90;;;31.20;;
44440;SDS011;30146;52.268;20.944;2024-01-11T01:52:08;65.50;;;29.00;;
44440;SDS011;30146;52.268;20.944;2024-01-11T01:54:40;64.80;;;28.10;;
44440;SDS011;30146;52.268;20.944;2024-01-11T01:57:11;75.10;;;30.00;;
44440;SDS011;30146;52.268;20.944;2024-01-11T01:59:43;77.80;;;31.80;;
44440;SDS011;30146;52.268;20.944;2024-01-11T02:02:19;63.20;;;28.60;;
44440;SDS011;30146;52.268;20.944;2024-01-11T02:04:51;77.70;;;29.50;;
44440;SDS011;30146;52.268;20.944;2024-01-11T02:07:22;68.40;;;28.60;;
44440;SDS011;30146;52.268;20.944;2024-01-11T02:09:53;67.50;;;28.20;;
44440;SDS011;30146;52.268;20.944;2024-01-11T02:12:25;67.10;;;28.50;;
44440;SDS011;30146;52.268;20.944;2024-01-11T02:14:56;60.60;;;27.30;;
44440;SDS011;30146;52.268;20.944;2024-01-11T02:17:27;57.60;;;28.10;;
44440;SDS011;30146;52.268;20.944;2024-01-11T02:19:59;67.70;;;26.70;;
44440;SDS011;30146;52.268;20.944;2024-01-11T02:22:34;65.50;;;24.00;;
44440;SDS011;30146;52.268;20.944;2024-01-11T02:25:08;69.90;;;28.40;;
44440;SDS011;30146;52.268;20.944;2024-01-11T02:27:46;69.70;;;26.20;;
44440;SDS011;30146;52.268;20.944;2024-01-11T02:30:18;67.90;;;27.50;;
44440;SDS011;30146;52.268;20.944;2024-01-11T02:32:50;80.90;;;30.00;;
44440;SDS011;30146;52.268;20.944;2024-01-11T02:35:22;66.70;;;29.70;;
44440;SDS011;30146;52.268;20.944;2024-01-11T02:37:54;82.20;;;31.00;;
44440;SDS011;30146;52.268;20.944;2024-01-11T02:40:26;79.70;;;31.20;;
44440;SDS011;30146;52.268;20.944;2024-01-11T02:42:58;83.40;;;32.10;;
44440;SDS011;30146;52.268;20.944;2024-01-11T02:45:38;85.90;;;30.90;;
44440;SDS011;30146;52.268;20.944;2024-01-11T02:48:13;81.40;;;30.50;;
44440;SDS011;30146;52.268;20.944;2024-01-11T02:50:44;67.70;;;28.00;;
44440;SDS011;30146;52.268;20.944;2024-01-11T02:53:18;66.60;;;26.10;;
44440;SDS011;30146;52.268;20.944;2024-01-11T02:55:49;64.80;;;27.80;;
44440;SDS011;30146;52.268;20.944;2024-01-11T02:58:20;67.70;;;26.70;;
44440;SDS011;30146;52.268;20.944;2024-01-11T03:00:51;77.00;;;28.70;;
44440;SDS011;30146;52.268;20.944;2024-01-11T03:03:23;75.40;;;29.40;;
44440;SDS011;30146;52.268;20.944;2024-01-11T03:05:54;72.50;;;28.60;;
44440;SDS011;30146;52.268;20.944;2024-01-11T03:08:25;74.40;;;28.40;;
44440;SDS011;30146;52.268;20.944;2024-01-11T03:10:57;72.40;;;27.50;;
44440;SDS011;30146;52.268;20.944;2024-01-11T03:13:28;68.50;;;28.30;;
44440;SDS011;30146;52.268;20.944;2024-01-11T03:16:00;72.10;;;27.20;;
44440;SDS011;30146;52.268;20.944;2024-01-11T03:18:32;64.80;;;26.50;;
44440;SDS011;30146;52.268;20.944;2024-01-11T03:21:03;68.10;;;27.30;;
44440;SDS011;30146;52.268;20.944;2024-01-11T03:23:34;61.80;;;26.80;;
44440;SDS011;30146;52.268;20.944;2024-01-11T03:26:05;73.50;;;27.80;;
44440;SDS011;30146;52.268;20.944;2024-01-11T03:28:43;85.10;;;29.20;;
44440;SDS011;30146;52.268;20.944;2024-01-11T03:31:14;89.20;;;31.80;;
44440;SDS011;30146;52.268;20.944;2024-01-11T03:33:45;96.00;;;32.30;;
44440;SDS011;30146;52.268;20.944;2024-01-11T03:36:17;81.50;;;28.60;;
44440;SDS011;30146;52.268;20.944;2024-01-11T03:38:52;82.20;;;29.20;;
44440;SDS011;30146;52.268;20.944;2024-01-11T03:41:23;92.60;;;31.60;;
44440;SDS011;30146;52.268;20.944;2024-01-11T03:43:54;80.90;;;29.00;;
44440;SDS011;30146;52.268;20.944;2024-01-11T03:46:25;90.30;;;29.50;;
44440;SDS011;30146;52.268;20.944;2024-01-11T03:48:56;72.60;;;26.20;;
44440;SDS011;30146;52.268;20.944;2024-01-11T03:51:28;68.20;;;26.90;;
44440;SDS011;30146;52.268;20.944;2024-01-11T03:53:59;73.30;;;28.10;;
44440;SDS011;30146;52.268;20.944;2024-01-11T03:56:30;67.40;;;25.80;;
44440;SDS011;30146;52.268;20.944;2024-01-11T03:59:01;81.60;;;31.40;;
44440;SDS011;30146;52.268;20.944;2024-01-11T04:01:37;69.60;;;30.10;;
44440;SDS011;30146;52.268;20.944;2024-01-11T04:04:10;74.40;;;28.40;;
44440;SDS011;30146;52.268;20.944;2024-01-11T04:06:41;81.70;;;29.80;;
44440;SDS011;30146;52.268;20.944;2024-01-11T04:09:13;63.90;;;24.60;;
44440;SDS011;30146;52.268;20.944;2024-01-11T04:11:44;55.40;;;20.60;;
44440;SDS011;30146;52.268;20.944;2024-01-11T04:14:15;60.50;;;26.40;;
44440;SDS011;30146;52.268;20.944;2024-01-11T04:16:46;71.60;;;28.80;;
44440;SDS011;30146;52.268;20.944;2024-01-11T04:19:17;73.30;;;25.10;;
44440;SDS011;30146;52.268;20.944;2024-01-11T04:21:51;76.40;;;28.80;;
44440;SDS011;30146;52.268;20.944;2024-01-11T04:24:22;80.10;;;33.40;;
44440;SDS011;30146;52.268;20.944;2024-01-11T04:26:53;82.60;;;33.20;;
44440;SDS011;30146;52.268;20.944;2024-01-11T04:29:24;89.50;;;34.70;;
44440;SDS011;30146;52.268;20.944;2024-01-11T04:31:55;98.00;;;34.30;;
44440;SDS011;30146;52.268;20.944;2024-01-11T04:34:27;108.10;;;34.30;;
44440;SDS011;30146;52.268;20.944;2024-01-11T04:36:59;90.10;;;35.30;;
44440;SDS011;30146;52.268;20.944;2024-01-11T04:39:30;85.40;;;33.40;;
44440;SDS011;30146;52.268;20.944;2024-01-11T04:42:01;80.90;;;30.20;;
44440;SDS011;30146;52.268;20.944;2024-01-11T04:44:34;72.00;;;27.50;;
44440;SDS011;30146;52.268;20.944;2024-01-11T04:47:06;95.20;;;33.90;;
44440;SDS011;30146;52.268;20.944;2024-01-11T04:49:39;77.10;;;32.10;;
44440;SDS011;30146;52.268;20.944;2024-01-11T04:52:10;75.80;;;29.50;;
44440;SDS011;30146;52.268;20.944;2024-01-11T04:54:41;81.30;;;32.60;;
44440;SDS011;30146;52.268;20.944;2024-01-11T04:57:13;74.40;;;32.40;;
44440;SDS011;30146;52.268;20.944;2024-01-11T04:59:45;76.70;;;28.90;;
44440;SDS011;30146;52.268;20.944;2024-01-11T05:02:16;85.30;;;29.50;;
44440;SDS011;30146;52.268;20.944;2024-01-11T05:04:55;67.20;;;27.70;;
44440;SDS011;30146;52.268;20.944;2024-01-11T05:07:28;66.90;;;26.90;;
44440;SDS011;30146;52.268;20.944;2024-01-11T05:10:00;67.00;;;27.70;;
44440;SDS011;30146;52.268;20.944;2024-01-11T05:12:32;73.10;;;28.80;;
44440;SDS011;30146;52.268;20.944;2024-01-11T05:15:06;86.60;;;32.10;;
44440;SDS011;30146;52.268;20.944;2024-01-11T05:17:41;80.30;;;32.90;;
44440;SDS011;30146;52.268;20.944;2024-01-11T05:20:12;84.10;;;31.70;;
44440;SDS011;30146;52.268;20.944;2024-01-11T05:22:44;87.80;;;30.70;;
44440;SDS011;30146;52.268;20.944;2024-01-11T05:25:15;78.30;;;30.90;;
44440;SDS011;30146;52.268;20.944;2024-01-11T05:27:46;67.30;;;27.00;;
44440;SDS011;30146;52.268;20.944;2024-01-11T05:30:18;60.70;;;25.60;;
44440;SDS011;30146;52.268;20.944;2024-01-11T05:32:49;65.60;;;27.10;;
44440;SDS011;30146;52.268;20.944;2024-01-11T05:35:21;71.50;;;26.10;;
44440;SDS011;30146;52.268;20.944;2024-01-11T05:37:54;59.30;;;27.20;;
44440;SDS011;30146;52.268;20.944;2024-01-11T05:40:26;58.00;;;24.40;;
44440;SDS011;30146;52.268;20.944;2024-01-11T05:42:58;56.60;;;22.50;;
44440;SDS011;30146;52.268;20.944;2024-01-11T05:45:29;56.70;;;23.50;;
44440;SDS011;30146;52.268;20.944;2024-01-11T05:48:15;56.20;;;23.50;;
44440;SDS011;30146;52.268;20.944;2024-01-11T05:50:47;57.00;;;24.20;;
44440;SDS011;30146;52.268;20.944;2024-01-11T05:53:18;50.60;;;22.80;;
44440;SDS011;30146;52.268;20.944;2024-01-11T05:55:49;55.00;;;21.90;;
44440;SDS011;30146;52.268;20.944;2024-01-11T05:58:25;55.80;;;22.00;;
44440;SDS011;30146;52.268;20.944;2024-01-11T06:00:56;56.00;;;20.90;;
44440;SDS011;30146;52.268;20.944;2024-01-11T06:03:28;51.20;;;19.80;;
44440;SDS011;30146;52.268;20.944;2024-01-11T06:06:03;45.60;;;19.80;;
44440;SDS011;30146;52.268;20.944;2024-01-11T06:11:08;52.20;;;21.50;;
44440;SDS011;30146;52.268;20.944;2024-01-11T06:13:41;67.80;;;25.60;;
44440;SDS011;30146;52.268;20.944;2024-01-11T06:16:12;61.80;;;24.60;;
44440;SDS011;30146;52.268;20.944;2024-01-11T06:18:43;57.00;;;23.80;;
44440;SDS011;30146;52.268;20.944;2024-01-11T06:21:15;53.90;;;23.50;;
44440;SDS011;30146;52.268;20.944;2024-01-11T06:23:48;48.50;;;19.70;;
44440;SDS011;30146;52.268;20.944;2024-01-11T06:26:20;52.00;;;21.60;;
44440;SDS011;30146;52.268;20.944;2024-01-11T06:28:52;53.10;;;19.40;;
44440;SDS011;30146;52.268;20.944;2024-01-11T06:31:23;42.20;;;18.10;;
44440;SDS011;30146;52.268;20.944;2024-01-11T06:33:54;54.60;;;19.20;;
44440;SDS011;30146;52.268;20.944;2024-01-11T06:36:26;40.50;;;18.90;;
44440;SDS011;30146;52.268;20.944;2024-01-11T06:38:58;45.70;;;17.90;;
44440;SDS011;30146;52.268;20.944;2024-01-11T06:41:29;38.70;;;16.50;;
44440;SDS011;30146;52.268;20.944;2024-01-11T06:44:03;31.90;;;17.30;;
44440;SDS011;30146;52.268;20.944;2024-01-11T06:46:34;44.40;;;17.30;;
44440;SDS011;30146;52.268;20.944;2024-01-11T06:49:10;42.70;;;18.20;;
44440;SDS011;30146;52.268;20.944;2024-01-11T06:51:43;39.00;;;18.40;;
44440;SDS011;30146;52.268;20.944;2024-01-11T06:54:14;43.20;;;18.00;;
44440;SDS011;30146;52.268;20.944;2024-01-11T06:56:48;55.00;;;17.60;;
44440;SDS011;30146;52.268;20.944;2024-01-11T06:59:19;50.50;;;18.20;;
44440;SDS011;30146;52.268;20.944;2024-01-11T07:01:56;47.80;;;19.70;;
44440;SDS011;30146;52.268;20.944;2024-01-11T07:04:36;57.70;;;21.70;;
44440;SDS011;30146;52.268;20.944;2024-01-11T07:07:07;53.90;;;22.10;;
44440;SDS011;30146;52.268;20.944;2024-01-11T07:09:38;48.50;;;20.90;;
44440;SDS011;30146;52.268;20.944;2024-01-11T07:12:09;48.90;;;21.70;;
44440;SDS011;30146;52.268;20.944;2024-01-11T07:14:39;43.00;;;19.70;;
44440;SDS011;30146;52.268;20.944;2024-01-11T07:17:16;49.70;;;19.80;;
44440;SDS011;30146;52.268;20.944;2024-01-11T07:19:48;48.30;;;18.20;;
44440;SDS011;30146;52.268;20.944;2024-01-11T07:22:24;36.60;;;16.10;;
44440;SDS011;30146;52.268;20.944;2024-01-11T07:24:55;42.50;;;17.60;;
44440;SDS011;30146;52.268;20.944;2024-01-11T07:27:26;40.00;;;18.00;;
44440;SDS011;30146;52.268;20.944;2024-01-11T07:29:59;44.40;;;19.00;;
44440;SDS011;30146;52.268;20.944;2024-01-11T07:32:31;43.50;;;17.30;;
44440;SDS011;30146;52.268;20.944;2024-01-11T07:35:03;40.40;;;17.30;;
44440;SDS011;30146;52.268;20.944;2024-01-11T07:37:41;31.60;;;14.50;;
44440;SDS011;30146;52.268;20.944;2024-01-11T07:40:12;43.70;;;16.40;;
44440;SDS011;30146;52.268;20.944;2024-01-11T07:42:44;42.40;;;17.80;;
44440;SDS011;30146;52.268;20.944;2024-01-11T07:45:16;49.60;;;18.10;;
44440;SDS011;30146;52.268;20.944;2024-01-11T07:47:47;54.10;;;21.20;;
44440;SDS011;30146;52.268;20.944;2024-01-11T07:50:18;44.80;;;19.80;;
44440;SDS011;30146;52.268;20.944;2024-01-11T07:52:49;53.60;;;21.10;;
44440;SDS011;30146;52.268;20.944;2024-01-11T07:55:20;58.10;;;20.70;;
44440;SDS011;30146;52.268;20.944;2024-01-11T07:57:54;59.30;;;22.80;;
44440;SDS011;30146;52.268;20.944;2024-01-11T08:00:25;50.30;;;20.30;;
44440;SDS011;30146;52.268;20.944;2024-01-11T08:02:57;56.80;;;19.90;;
44440;SDS011;30146;52.268;20.944;2024-01-11T08:05:28;44.30;;;19.10;;
44440;SDS011;30146;52.268;20.944;2024-01-11T08:07:59;44.30;;;18.70;;
44440;SDS011;30146;52.268;20.944;2024-01-11T08:10:31;48.00;;;20.00;;
44440;SDS011;30146;52.268;20.944;2024-01-11T08:13:03;48.10;;;18.60;;
44440;SDS011;30146;52.268;20.944;2024-01-11T08:15:34;40.50;;;18.80;;
44440;SDS011;30146;52.268;20.944;2024-01-11T08:18:06;52.90;;;18.10;;
44440;SDS011;30146;52.268;20.944;2024-01-11T08:20:39;45.90;;;18.90;;
44440;SDS011;30146;52.268;20.944;2024-01-11T08:23:11;41.50;;;17.50;;
44440;SDS011;30146;52.268;20.944;2024-01-11T08:25:43;51.30;;;19.20;;
44440;SDS011;30146;52.268;20.944;2024-01-11T08:28:15;48.70;;;20.20;;
44440;SDS011;30146;52.268;20.944;2024-01-11T08:30:48;51.70;;;19.30;;
44440;SDS011;30146;52.268;20.944;2024-01-11T08:33:20;48.30;;;18.40;;
44440;SDS011;30146;52.268;20.944;2024-01-11T08:35:51;43.70;;;18.20;;
44440;SDS011;30146;52.268;20.944;2024-01-11T08:38:22;49.10;;;19.00;;
44440;SDS011;30146;52.268;20.944;2024-01-11T08:40:54;50.80;;;19.30;;
44440;SDS011;30146;52.268;20.944;2024-01-11T08:43:26;44.90;;;16.90;;
44440;SDS011;30146;52.268;20.944;2024-01-11T08:45:58;40.70;;;17.50;;
44440;SDS011;30146;52.268;20.944;2024-01-11T08:48:30;49.50;;;18.80;;
44440;SDS011;30146;52.268;20.944;2024-01-11T08:51:01;46.00;;;18.10;;
44440;SDS011;30146;52.268;20.944;2024-01-11T08:53:33;49.30;;;17.80;;
44440;SDS011;30146;52.268;20.944;2024-01-11T08:56:05;46.90;;;16.90;;
44440;SDS011;30146;52.268;20.944;2024-01-11T08:58:36;39.30;;;17.30;;
44440;SDS011;30146;52.268;20.944;2024-01-11T09:01:10;42.30;;;15.60;;
44440;SDS011;30146;52.268;20.944;2024-01-11T09:03:41;46.80;;;17.30;;
44440;SDS011;30146;52.268;20.944;2024-01-11T09:06:13;48.50;;;19.00;;
44440;SDS011;30146;52.268;20.944;2024-01-11T09:08:44;57.10;;;20.40;;
44440;SDS011;30146;52.268;20.944;2024-01-11T09:11:18;35.10;;;16.40;;
44440;SDS011;30146;52.268;20.944;2024-01-11T09:13:50;35.20;;;15.40;;
44440;SDS011;30146;52.268;20.944;2024-01-11T09:16:21;50.70;;;19.40;;
44440;SDS011;30146;52.268;20.944;2024-01-11T09:18:53;47.40;;;19.60;;
44440;SDS011;30146;52.268;20.944;2024-01-11T09:21:24;41.50;;;20.10;;
44440;SDS011;30146;52.268;20.944;2024-01-11T09:23:55;55.40;;;21.20;;
44440;SDS011;30146;52.268;20.944;2024-01-11T09:26:31;50.40;;;19.00;;
44440;SDS011;30146;52.268;20.944;2024-01-11T09:29:04;43.70;;;18.30;;
44440;SDS011;30146;52.268;20.944;2024-01-11T09:31:36;39.40;;;18.00;;
44440;SDS011;30146;52.268;20.944;2024-01-11T09:34:08;38.60;;;17.30;;
44440;SDS011;30146;52.268;20.944;2024-01-11T09:36:40;45.80;;;16.50;;
44440;SDS011;30146;52.268;20.944;2024-01-11T09:39:11;40.30;;;17.20;;
44440;SDS011;30146;52.268;20.944;2024-01-11T09:41:46;38.50;;;17.70;;
44440;SDS011;30146;52.268;20.944;2024-01-11T09:44:27;36.70;;;17.40;;
44440;SDS011;30146;52.268;20.944;2024-01-11T09:46:58;39.50;;;15.60;;
44440;SDS011;30146;52.268;20.944;2024-01-11T09:49:33;37.20;;;17.60;;
44440;SDS011;30146;52.268;20.944;2024-01-11T09:52:06;49.20;;;17.30;;
44440;SDS011;30146;52.268;20.944;2024-01-11T09:54:39;50.70;;;19.40;;
44440;SDS011;30146;52.268;20.944;2024-01-11T09:57:10;47.20;;;19.50;;
44440;SDS011;30146;52.268;20.944;2024-01-11T09:59:44;45.70;;;19.00;;
44440;SDS011;30146;52.268;20.944;2024-01-11T10:02:19;48.60;;;20.30;;
44440;SDS011;30146;52.268;20.944;2024-01-11T10:04:50;37.60;;;18.20;;
44440;SDS011;30146;52.268;20.944;2024-01-11T10:07:23;35.90;;;15.90;;
44440;SDS011;30146;52.268;20.944;2024-01-11T10:09:54;40.40;;;16.40;;
44440;SDS011;30146;52.268;20.944;2024-01-11T10:12:26;36.30;;;17.20;;
44440;SDS011;30146;52.268;20.944;2024-01-11T10:14:59;39.90;;;17.30;;
44440;SDS011;30146;52.268;20.944;2024-01-11T10:17:38;34.20;;;17.60;;
44440;SDS011;30146;52.268;20.944;2024-01-11T10:20:12;41.90;;;17.70;;
44440;SDS011;30146;52.268;20.944;2024-01-11T10:22:46;35.50;;;15.90;;
44440;SDS011;30146;52.268;20.944;2024-01-11T10:25:17;39.70;;;16.70;;
44440;SDS011;30146;52.268;20.944;2024-01-11T10:27:48;36.30;;;17.40;;
44440;SDS011;30146;52.268;20.944;2024-01-11T10:30:19;44.30;;;17.40;;
44440;SDS011;30146;52.268;20.944;2024-01-11T10:32:52;43.60;;;19.30;;
44440;SDS011;30146;52.268;20.944;2024-01-11T10:35:28;49.70;;;20.20;;
44440;SDS011;30146;52.268;20.944;2024-01-11T10:37:59;44.60;;;19.10;;
44440;SDS011;30146;52.268;20.944;2024-01-11T10:40:34;48.00;;;19.50;;
44440;SDS011;30146;52.268;20.944;2024-01-11T10:43:05;47.40;;;20.10;;
44440;SDS011;30146;52.268;20.944;2024-01-11T10:45:39;46.30;;;20.60;;
44440;SDS011;30146;52.268;20.944;2024-01-11T10:48:13;38.80;;;18.10;;
44440;SDS011;30146;52.268;20.944;2024-01-11T10:50:45;49.40;;;19.40;;
44440;SDS011;30146;52.268;20.944;2024-01-11T10:53:22;47.80;;;18.40;;
44440;SDS011;30146;52.268;20.944;2024-01-11T10:56:00;46.20;;;19.20;;
44440;SDS011;30146;52.268;20.944;2024-01-11T10:58:32;43.90;;;18.40;;
44440;SDS011;30146;52.268;20.944;2024-01-11T11:01:04;38.80;;;19.00;;
44440;SDS011;30146;52.268;20.944;2024-01-11T11:03:37;48.50;;;20.70;;
44440;SDS011;30146;52.268;20.944;2024-01-11T11:06:11;62.10;;;22.60;;
44440;SDS011;30146;52.268;20.944;2024-01-11T11:08:43;57.60;;;22.10;;
44440;SDS011;30146;52.268;20.944;2024-01-11T11:11:16;49.20;;;21.30;;
44440;SDS011;30146;52.268;20.944;2024-01-11T11:13:49;44.30;;;19.90;;
44440;SDS011;30146;52.268;20.944;2024-01-11T11:16:22;54.10;;;21.20;;
44440;SDS011;30146;52.268;20.944;2024-01-11T11:18:53;47.20;;;20.80;;
44440;SDS011;30146;52.268;20.944;2024-01-11T11:21:25;52.70;;;20.30;;
44440;SDS011;30146;52.268;20.944;2024-01-11T11:23:58;46.90;;;20.70;;
44440;SDS011;30146;52.268;20.944;2024-01-11T11:26:31;48.00;;;20.30;;
44440;SDS011;30146;52.268;20.944;2024-01-11T11:31:37;48.50;;;18.60;;
44440;SDS011;30146;52.268;20.944;2024-01-11T11:34:12;50.70;;;19.60;;
44440;SDS011;30146;52.268;20.944;2024-01-11T11:36:45;58.70;;;21.80;;
44440;SDS011;30146;52.268;20.944;2024-01-11T11:39:23;60.60;;;23.20;;
44440;SDS011;30146;52.268;20.944;2024-01-11T11:41:54;63.70;;;24.50;;
44440;SDS011;30146;52.268;20.944;2024-01-11T11:44:26;66.50;;;25.20;;
44440;SDS011;30146;52.268;20.944;2024-01-11T11:49:58;55.70;;;23.10;;
44440;SDS011;30146;52.268;20.944;2024-01-11T11:52:34;64.10;;;25.50;;
44440;SDS011;30146;52.268;20.944;2024-01-11T11:55:07;64.30;;;26.00;;
44440;SDS011;30146;52.268;20.944;2024-01-11T11:57:38;62.20;;;23.90;;
44440;SDS011;30146;52.268;20.944;2024-01-11T12:00:13;58.60;;;25.70;;
44440;SDS011;30146;52.268;20.944;2024-01-11T12:02:45;61.70;;;22.10;;
44440;SDS011;30146;52.268;20.944;2024-01-11T12:05:19;57.50;;;23.30;;
44440;SDS011;30146;52.268;20.944;2024-01-11T12:07:50;59.50;;;22.80;;
44440;SDS011;30146;52.268;20.944;2024-01-11T12:10:24;60.50;;;24.00;;
44440;SDS011;30146;52.268;20.944;2024-01-11T12:13:05;64.80;;;25.10;;
44440;SDS011;30146;52.268;20.944;2024-01-11T12:15:36;65.30;;;24.10;;
44440;SDS011;30146;52.268;20.944;2024-01-11T12:18:09;63.30;;;25.20;;
44440;SDS011;30146;52.268;20.944;2024-01-11T12:20:40;71.50;;;27.50;;
44440;SDS011;30146;52.268;20.944;2024-01-11T12:23:12;63.80;;;26.20;;
44440;SDS011;30146;52.268;20.944;2024-01-11T12:25:47;62.80;;;25.50;;
44440;SDS011;30146;52.268;20.944;2024-01-11T12:28:18;65.30;;;23.80;;
44440;SDS011;30146;52.268;20.944;2024-01-11T12:30:49;52.50;;;22.20;;
44440;SDS011;30146;52.268;20.944;2024-01-11T12:33:20;55.80;;;21.70;;
44440;SDS011;30146;52.268;20.944;2024-01-11T12:35:54;50.80;;;21.70;;
44440;SDS011;30146;52.268;20.944;2024-01-11T12:38:26;59.20;;;24.20;;
44440;SDS011;30146;52.268;20.944;2024-01-11T12:40:57;56.00;;;22.30;;
44440;SDS011;30146;52.268;20.944;2024-01-11T12:43:28;57.90;;;22.50;;
44440;SDS011;30146;52.268;20.944;2024-01-11T12:45:59;61.80;;;24.10;;
44440;SDS011;30146;52.268;20.944;2024-01-11T12:48:35;55.20;;;25.40;;
44440;SDS011;30146;52.268;20.944;2024-01-11T12:51:06;60.30;;;25.40;;
44440;SDS011;30146;52.268;20.944;2024-01-11T12:53:48;65.40;;;25.80;;
44440;SDS011;30146;52.268;20.944;2024-01-11T12:56:21;56.60;;;24.80;;
44440;SDS011;30146;52.268;20.944;2024-01-11T12:59:05;55.60;;;24.50;;
44440;SDS011;30146;52.268;20.944;2024-01-11T13:01:39;52.90;;;22.00;;
44440;SDS011;30146;52.268;20.944;2024-01-11T13:04:11;54.70;;;23.70;;
44440;SDS011;30146;52.268;20.944;2024-01-11T13:06:42;56.30;;;22.10;;
44440;SDS011;30146;52.268;20.944;2024-01-11T13:09:13;57.00;;;22.60;;
44440;SDS011;30146;52.268;20.944;2024-01-11T13:11:44;63.40;;;23.50;;
44440;SDS011;30146;52.268;20.944;2024-01-11T13:14:20;50.30;;;22.20;;
44440;SDS011;30146;52.268;20.944;2024-01-11T13:16:58;58.60;;;21.70;;
44440;SDS011;30146;52.268;20.944;2024-01-11T13:19:29;48.70;;;20.80;;
44440;SDS011;30146;52.268;20.944;2024-01-11T13:22:00;50.20;;;21.80;;
44440;SDS011;30146;52.268;20.944;2024-01-11T13:24:33;50.10;;;21.30;;
44440;SDS011;30146;52.268;20.944;2024-01-11T13:27:04;49.80;;;21.20;;
44440;SDS011;30146;52.268;20.944;2024-01-11T13:32:10;49.30;;;21.30;;
44440;SDS011;30146;52.268;20.944;2024-01-11T13:34:51;47.20;;;20.80;;
44440;SDS011;30146;52.268;20.944;2024-01-11T13:37:39;48.40;;;21.40;;
44440;SDS011;30146;52.268;20.944;2024-01-11T13:43:18;48.80;;;20.90;;
44440;SDS011;30146;52.268;20.944;2024-01-11T13:46:17;53.60;;;20.20;;
44440;SDS011;30146;52.268;20.944;2024-01-11T13:48:51;58.40;;;23.80;;
44440;SDS011;30146;52.268;20.944;2024-01-11T13:51:22;55.90;;;24.50;;
44440;SDS011;30146;52.268;20.944;2024-01-11T13:53:54;58.10;;;22.80;;
44440;SDS011;30146;52.268;20.944;2024-01-11T13:56:33;46.80;;;22.00;;
44440;SDS011;30146;52.268;20.944;2024-01-11T13:59:09;58.30;;;24.40;;
44440;SDS011;30146;52.268;20.944;2024-01-11T14:01:44;58.10;;;24.30;;
44440;SDS011;30146;52.268;20.944;2024-01-11T14:04:16;52.90;;;22.00;;
44440;SDS011;30146;52.268;20.944;2024-01-11T14:06:55;52.80;;;24.10;;
44440;SDS011;30146;52.268;20.944;2024-01-11T14:09:32;55.40;;;23.70;;
44440;SDS011;30146;52.268;20.944;2024-01-11T14:12:04;53.00;;;22.20;;
44440;SDS011;30146;52.268;20.944;2024-01-11T14:14:37;56.70;;;24.00;;
44440;SDS011;30146;52.268;20.944;2024-01-11T14:17:10;60.00;;;24.00;;
44440;SDS011;30146;52.268;20.944;2024-01-11T14:19:42;56.30;;;24.80;;
44440;SDS011;30146;52.268;20.944;2024-01-11T14:22:15;62.30;;;23.20;;
44440;SDS011;30146;52.268;20.944;2024-01-11T14:24:46;59.90;;;25.30;;
44440;SDS011;30146;52.268;20.944;2024-01-11T14:27:19;49.70;;;23.10;;
44440;SDS011;30146;52.268;20.944;2024-01-11T14:29:51;48.90;;;22.90;;
44440;SDS011;30146;52.268;20.944;2024-01-11T14:32:27;62.90;;;23.30;;
44440;SDS011;30146;52.268;20.944;2024-01-11T14:35:05;67.90;;;24.60;;
44440;SDS011;30146;52.268;20.944;2024-01-11T14:37:38;55.80;;;24.30;;
44440;SDS011;30146;52.268;20.944;2024-01-11T14:40:13;56.70;;;24.10;;
44440;SDS011;30146;52.268;20.944;2024-01-11T14:42:46;59.10;;;26.50;;
44440;SDS011;30146;52.268;20.944;2024-01-11T14:45:17;66.70;;;26.00;;
44440;SDS011;30146;52.268;20.944;2024-01-11T14:47:48;54.20;;;23.60;;
44440;SDS011;30146;52.268;20.944;2024-01-11T14:50:20;57.10;;;23.50;;
44440;SDS011;30146;52.268;20.944;2024-01-11T14:52:52;58.70;;;26.10;;
44440;SDS011;30146;52.268;20.944;2024-01-11T14:55:36;61.70;;;25.90;;